Time;durP1;ratioP1;P1;durP2;ratioP2;P2;SDS_P1;SDS_P2;PMS_P1;PMS_P2;Temp;Humidity;BMP_temperature;BMP_pressure;BME280_temperature;BME280_humidity;BME280_pressure;Samples;Min_cycle;Max_cycle;Signal;HPM_P1;HPM_P2
2023/01/30 00:00:52;;;;;;;23.38;12.82;;;3.10;99.90;;;;;;5093224;28;20231;-79
2023/01/30 00:03:20;;;;;;;31.75;8.00;;;3.10;99.90;;;;;;5078664;28;20247;-79
2023/01/30 00:05:47;;;;;;;24.27;6.07;;;3.10;99.90;;;;;;5077339;28;20198;-79
2023/01/30 00:08:14;;;;;;;9.93;6.60;;;3.20;99.90;;;;;;5077241;28;20277;-79
2023/01/30 00:10:41;;;;;;;9.13;5.88;;;3.20;99.90;;;;;;5076989;28;20774;-80
2023/01/30 00:13:08;;;;;;;13.82;8.20;;;3.20;99.90;;;;;;5075341;28;20197;-79
2023/01/30 00:15:35;;;;;;;8.50;7.75;;;3.20;99.90;;;;;;5075634;28;20204;-80
2023/01/30 00:18:01;;;;;;;11.18;7.78;;;3.20;99.90;;;;;;5076607;28;20567;-80
2023/01/30 00:20:30;;;;;;;12.93;9.00;;;3.20;99.90;;;;;;5081182;28;20297;-79
2023/01/30 00:22:57;;;;;;;22.83;9.55;;;3.30;99.90;;;;;;5084130;28;20236;-80
2023/01/30 00:25:24;;;;;;;16.70;10.00;;;3.30;99.90;;;;;;5076344;28;20225;-80
2023/01/30 00:27:51;;;;;;;17.70;12.88;;;3.30;99.90;;;;;;5076085;28;20214;-80
2023/01/30 00:30:18;;;;;;;14.85;9.18;;;3.30;99.90;;;;;;5075358;28;20583;-79
2023/01/30 00:32:45;;;;;;;12.43;9.27;;;3.40;99.90;;;;;;5075998;28;20200;-79
2023/01/30 00:35:11;;;;;;;10.98;7.85;;;3.40;99.90;;;;;;5075044;28;20220;-79
2023/01/30 00:37:40;;;;;;;26.17;9.18;;;3.40;99.90;;;;;;5074519;28;20281;-80
2023/01/30 00:40:07;;;;;;;17.67;12.23;;;3.40;99.90;;;;;;5075351;28;20264;-79
2023/01/30 00:48:03;;;;;;;16.60;10.63;;;3.50;99.90;;;;;;5075087;28;20197;-81
2023/01/30 00:50:41;;;;;;;22.38;10.20;;;3.50;99.90;;;;;;5076053;28;20214;-80
2023/01/30 00:53:10;;;;;;;16.52;11.00;;;3.50;99.90;;;;;;5081189;28;20217;-79
2023/01/30 00:55:37;;;;;;;26.25;13.93;;;3.60;99.90;;;;;;5080960;28;20266;-78
2023/01/30 00:58:04;;;;;;;12.85;8.55;;;3.60;99.90;;;;;;5082361;28;20196;-79
2023/01/30 01:00:31;;;;;;;13.38;7.07;;;3.60;99.90;;;;;;5083320;28;20289;-79
2023/01/30 01:02:58;;;;;;;15.32;6.82;;;3.60;99.90;;;;;;5085356;28;20190;-79
2023/01/30 01:05:25;;;;;;;15.30;8.32;;;3.60;99.90;;;;;;5083085;28;20234;-79
2023/01/30 01:07:52;;;;;;;9.95;6.63;;;3.70;99.90;;;;;;5083211;28;20263;-80
2023/01/30 01:10:21;;;;;;;21.35;10.65;;;3.70;99.90;;;;;;5084174;28;20213;-79
2023/01/30 01:12:51;;;;;;;26.90;11.35;;;3.70;99.90;;;;;;5084218;28;20566;-79
2023/01/30 01:15:19;;;;;;;7.45;6.75;;;3.70;99.90;;;;;;5085097;28;20261;-78
2023/01/30 01:17:46;;;;;;;22.63;13.38;;;3.70;99.90;;;;;;5084741;28;20197;-79
2023/01/30 01:20:13;;;;;;;22.98;14.52;;;3.70;99.90;;;;;;5084580;28;20217;-76
2023/01/30 01:22:40;;;;;;;9.50;6.47;;;3.70;99.90;;;;;;5085587;28;20197;-79
2023/01/30 01:25:09;;;;;;;13.23;11.77;;;3.70;99.90;;;;;;5088244;28;20225;-77
2023/01/30 01:27:38;;;;;;;31.13;13.30;;;3.70;99.90;;;;;;5089548;28;20225;-79
2023/01/30 01:30:06;;;;;;;20.90;12.80;;;3.70;99.90;;;;;;5090928;28;20218;-79
2023/01/30 01:32:33;;;;;;;7.50;5.57;;;3.70;99.90;;;;;;5085648;28;20190;-79
2023/01/30 01:35:00;;;;;;;7.43;3.55;;;3.70;99.90;;;;;;5085322;28;20189;-80
2023/01/30 01:37:28;;;;;;;13.50;11.23;;;3.70;99.90;;;;;;5085492;28;20265;-79
2023/01/30 01:42:40;;;;;;;17.15;11.00;;;3.80;99.90;;;;;;5071161;22;20226;-77
2023/01/30 01:45:19;;;;;;;33.80;15.65;;;3.80;99.90;;;;;;5050863;28;20208;-76
2023/01/30 01:47:57;;;;;;;25.05;14.30;;;3.80;99.90;;;;;;5052149;28;20260;-76
2023/01/30 01:50:28;;;;;;;14.38;10.70;;;3.90;99.90;;;;;;5050753;28;20201;-77
2023/01/30 01:52:58;;;;;;;15.73;9.25;;;3.90;99.90;;;;;;5051969;28;20219;-76
2023/01/30 01:55:26;;;;;;;18.25;10.88;;;3.90;99.90;;;;;;5051937;28;20229;-77
2023/01/30 01:57:59;;;;;;;20.92;11.30;;;3.90;99.90;;;;;;5052776;28;20195;-77
2023/01/30 02:00:26;;;;;;;23.17;13.95;;;4.00;99.90;;;;;;5053289;28;20687;-76
2023/01/30 02:02:57;;;;;;;23.88;10.48;;;4.00;99.90;;;;;;5052292;28;20711;-77
2023/01/30 02:05:28;;;;;;;6.10;5.18;;;4.00;99.90;;;;;;5053068;28;20285;-76
2023/01/30 02:08:01;;;;;;;19.70;11.18;;;4.00;99.90;;;;;;5053480;28;20225;-76
2023/01/30 02:10:36;;;;;;;17.25;10.30;;;4.10;99.90;;;;;;5053630;28;20198;-77
2023/01/30 02:13:05;;;;;;;15.38;8.27;;;4.10;99.90;;;;;;5053562;28;20226;-76
2023/01/30 02:15:32;;;;;;;4.70;4.32;;;4.10;99.90;;;;;;5053098;28;20195;-76
2023/01/30 02:17:58;;;;;;;9.98;8.25;;;4.10;99.90;;;;;;5054112;28;20226;-76
2023/01/30 02:20:32;;;;;;;15.20;7.55;;;4.10;99.90;;;;;;5056084;28;20286;-76
2023/01/30 02:23:24;;;;;;;13.57;7.63;;;4.20;99.90;;;;;;5055653;28;20257;-78
2023/01/30 02:26:24;;;;;;;16.73;8.80;;;4.20;99.90;;;;;;5055786;28;20179;-77
2023/01/30 02:29:38;;;;;;;8.73;4.03;;;4.30;99.90;;;;;;5055699;28;20604;-77
2023/01/30 02:32:14;;;;;;;18.83;9.88;;;4.30;99.90;;;;;;5029576;28;20591;-77
2023/01/30 02:34:48;;;;;;;17.63;8.95;;;4.30;99.90;;;;;;5054351;28;20553;-76
2023/01/30 02:37:27;;;;;;;20.20;10.48;;;4.40;99.90;;;;;;5054704;28;20604;-76
2023/01/30 02:40:10;;;;;;;24.90;14.10;;;4.40;99.90;;;;;;5054402;28;20197;-77
2023/01/30 02:42:45;;;;;;;3.90;3.60;;;4.40;99.90;;;;;;5054070;28;20822;-76
2023/01/30 02:45:19;;;;;;;15.27;11.18;;;4.50;99.90;;;;;;5054073;28;20189;-75
2023/01/30 02:47:53;;;;;;;27.05;10.52;;;4.50;99.90;;;;;;5053867;28;20324;-76
2023/01/30 02:50:25;;;;;;;4.97;3.30;;;4.50;99.90;;;;;;5053680;28;20200;-76
2023/01/30 02:52:53;;;;;;;14.60;7.85;;;4.50;99.90;;;;;;5054309;28;20244;-76
2023/01/30 02:55:23;;;;;;;20.17;10.90;;;4.60;99.90;;;;;;5053415;28;20209;-76
2023/01/30 02:57:50;;;;;;;12.90;4.90;;;4.60;99.90;;;;;;5053841;28;20667;-76
2023/01/30 03:00:22;;;;;;;31.75;14.60;;;4.60;99.90;;;;;;5053371;28;20198;-75
2023/01/30 03:03:11;;;;;;;7.40;5.22;;;4.60;99.90;;;;;;5053979;28;20435;-76
2023/01/30 03:05:51;;;;;;;16.60;9.73;;;4.60;99.90;;;;;;5053426;28;20179;-76
2023/01/30 03:08:31;;;;;;;6.70;5.55;;;4.70;99.90;;;;;;5053716;28;20325;-76
2023/01/30 03:11:01;;;;;;;27.15;15.30;;;4.70;99.90;;;;;;5053890;28;20537;-76
2023/01/30 03:13:39;;;;;;;21.58;13.45;;;4.70;99.90;;;;;;5053578;28;20195;-76
2023/01/30 03:16:11;;;;;;;11.18;8.40;;;4.70;99.90;;;;;;5053386;28;20187;-76
2023/01/30 03:18:42;;;;;;;11.98;5.40;;;4.70;99.90;;;;;;5053897;28;20179;-76
2023/01/30 03:21:09;;;;;;;14.80;9.88;;;4.70;99.90;;;;;;5053319;28;20191;-77
2023/01/30 03:23:35;;;;;;;19.63;9.13;;;4.70;99.90;;;;;;5053337;28;20199;-77
2023/01/30 03:26:05;;;;;;;10.43;4.88;;;4.80;99.90;;;;;;5053027;28;20199;-76
2023/01/30 03:28:34;;;;;;;5.38;3.17;;;4.80;99.90;;;;;;5053210;28;20242;-76
2023/01/30 03:31:01;;;;;;;16.92;10.70;;;4.80;99.90;;;;;;5052851;28;20198;-77
2023/01/30 03:33:27;;;;;;;17.67;7.32;;;4.80;99.90;;;;;;5053218;28;20197;-76
2023/01/30 03:35:56;;;;;;;13.13;7.75;;;4.80;99.90;;;;;;5052653;28;20613;-76
2023/01/30 03:38:23;;;;;;;17.63;10.90;;;4.80;99.90;;;;;;5053154;28;20282;-76
2023/01/30 03:40:49;;;;;;;25.83;11.50;;;4.80;99.90;;;;;;5052868;28;20209;-76
2023/01/30 03:43:16;;;;;;;11.18;7.53;;;4.80;99.90;;;;;;5052912;28;20690;-76
2023/01/30 03:45:43;;;;;;;20.05;9.68;;;4.80;99.90;;;;;;5052473;28;20201;-76
2023/01/30 03:48:10;;;;;;;1.88;1.77;;;4.80;99.90;;;;;;5054603;28;20836;-76
2023/01/30 03:50:37;;;;;;;10.05;9.00;;;4.80;99.90;;;;;;5055323;28;20194;-76
2023/01/30 03:53:05;;;;;;;13.30;6.35;;;4.80;99.90;;;;;;5055376;28;20218;-76
2023/01/30 03:55:32;;;;;;;15.32;9.02;;;4.80;99.90;;;;;;5054816;28;20266;-76
2023/01/30 03:57:58;;;;;;;21.77;11.15;;;4.80;99.90;;;;;;5055024;28;20194;-76
2023/01/30 04:00:26;;;;;;;24.83;11.85;;;4.80;99.90;;;;;;5054419;28;20198;-76
2023/01/30 04:02:53;;;;;;;4.90;4.38;;;4.80;99.90;;;;;;5054435;28;20298;-76
2023/01/30 04:05:20;;;;;;;14.43;10.38;;;4.80;99.90;;;;;;5054471;28;20292;-76
2023/01/30 04:07:47;;;;;;;13.93;6.13;;;4.80;99.90;;;;;;5054747;28;20246;-76
2023/01/30 04:10:18;;;;;;;5.25;4.72;;;4.80;99.90;;;;;;5055127;28;20198;-76
2023/01/30 04:12:45;;;;;;;6.70;6.00;;;4.80;99.90;;;;;;5054885;28;20305;-77
2023/01/30 04:15:12;;;;;;;2.92;1.83;;;4.80;99.90;;;;;;5054119;28;20190;-76
2023/01/30 04:17:39;;;;;;;5.60;4.97;;;4.80;99.90;;;;;;5054936;28;20282;-76
2023/01/30 04:20:07;;;;;;;8.82;4.80;;;4.80;99.90;;;;;;5054780;28;20201;-75
2023/01/30 04:22:34;;;;;;;5.30;4.47;;;4.90;99.90;;;;;;5053969;28;20215;-76
2023/01/30 04:25:01;;;;;;;20.23;7.45;;;4.90;99.90;;;;;;5054023;28;20201;-75
2023/01/30 04:27:29;;;;;;;13.45;10.82;;;4.90;99.90;;;;;;5054765;28;20217;-77
2023/01/30 04:29:56;;;;;;;6.57;5.30;;;4.90;99.90;;;;;;5054064;28;20195;-77
2023/01/30 04:32:23;;;;;;;19.63;8.52;;;4.90;99.90;;;;;;5054296;28;20214;-76
2023/01/30 04:34:49;;;;;;;6.03;4.13;;;4.90;99.90;;;;;;5053494;28;20290;-76
2023/01/30 04:37:16;;;;;;;4.20;2.25;;;4.90;99.90;;;;;;5053544;28;20571;-76
2023/01/30 04:39:43;;;;;;;6.85;4.10;;;5.00;99.90;;;;;;5052604;28;20226;-75
2023/01/30 04:42:10;;;;;;;16.60;6.80;;;5.00;99.90;;;;;;5051606;28;20248;-75
2023/01/30 04:44:38;;;;;;;2.78;2.65;;;5.00;99.90;;;;;;5051818;28;20664;-75
2023/01/30 04:47:05;;;;;;;4.38;2.63;;;5.00;99.90;;;;;;5052219;28;20210;-75
2023/01/30 04:49:32;;;;;;;8.48;4.18;;;5.00;99.90;;;;;;5052796;28;20217;-75
2023/01/30 04:51:58;;;;;;;3.70;3.38;;;5.00;99.90;;;;;;5052489;28;20221;-75
2023/01/30 04:54:25;;;;;;;6.60;5.05;;;5.00;99.90;;;;;;5052083;28;20262;-73
2023/01/30 04:56:52;;;;;;;6.20;4.13;;;5.00;99.90;;;;;;5052493;28;20190;-76
2023/01/30 04:59:19;;;;;;;15.77;4.45;;;5.00;99.90;;;;;;5052647;28;20197;-75
2023/01/30 05:01:47;;;;;;;11.60;5.95;;;5.10;99.90;;;;;;5053152;28;20301;-75
2023/01/30 05:04:14;;;;;;;6.68;3.83;;;5.10;99.90;;;;;;5052591;28;20195;-75
2023/01/30 05:06:41;;;;;;;22.63;9.60;;;5.10;99.90;;;;;;5052896;28;20201;-76
2023/01/30 05:09:08;;;;;;;7.35;6.65;;;5.10;99.90;;;;;;5053292;28;20322;-74
2023/01/30 05:11:35;;;;;;;6.03;4.55;;;5.10;99.90;;;;;;5052666;28;20218;-75
2023/01/30 05:14:02;;;;;;;3.95;3.13;;;5.10;99.90;;;;;;5052153;28;20695;-75
2023/01/30 05:16:29;;;;;;;15.38;7.65;;;5.10;99.90;;;;;;5052666;28;20219;-76
2023/01/30 05:18:57;;;;;;;4.30;3.92;;;5.20;99.90;;;;;;5052365;28;20286;-76
2023/01/30 05:21:27;;;;;;;15.32;10.55;;;5.20;99.90;;;;;;5051843;28;20211;-76
2023/01/30 05:23:54;;;;;;;3.53;2.05;;;5.20;99.90;;;;;;5044865;28;20270;-76
2023/01/30 05:26:22;;;;;;;21.60;9.75;;;5.20;99.90;;;;;;5041158;28;20188;-77
2023/01/30 05:28:52;;;;;;;10.30;6.10;;;5.20;99.90;;;;;;5044406;28;20216;-74
2023/01/30 05:31:19;;;;;;;14.05;8.48;;;5.20;99.90;;;;;;5052712;28;20265;-75
2023/01/30 05:33:48;;;;;;;5.80;5.18;;;5.20;99.90;;;;;;5052751;28;20285;-75
2023/01/30 05:36:18;;;;;;;9.27;5.28;;;5.30;99.90;;;;;;5052478;28;20198;-75
2023/01/30 05:38:45;;;;;;;7.85;6.63;;;5.30;99.90;;;;;;5051892;28;20194;-75
2023/01/30 05:41:13;;;;;;;4.55;4.25;;;5.30;99.90;;;;;;5052072;28;20306;-76
2023/01/30 05:43:40;;;;;;;15.40;8.15;;;5.30;99.90;;;;;;5052533;28;20287;-75
2023/01/30 05:46:07;;;;;;;11.55;7.63;;;5.30;99.90;;;;;;5052412;28;20286;-75
2023/01/30 05:48:34;;;;;;;2.67;2.58;;;5.40;99.90;;;;;;5052535;28;20791;-76
2023/01/30 05:51:01;;;;;;;4.07;2.45;;;5.40;99.90;;;;;;5052419;28;20647;-77
2023/01/30 05:53:33;;;;;;;6.82;3.90;;;5.40;99.90;;;;;;5055747;28;20209;-77
2023/01/30 05:56:01;;;;;;;18.77;8.20;;;5.50;99.90;;;;;;5056636;28;20632;-74
2023/01/30 05:58:29;;;;;;;2.40;2.20;;;5.50;99.90;;;;;;5056679;28;20230;-76
2023/01/30 06:01:00;;;;;;;5.03;3.17;;;5.50;99.90;;;;;;5056509;28;20218;-75
2023/01/30 06:03:27;;;;;;;7.65;4.43;;;5.50;99.90;;;;;;5057066;28;20195;-76
2023/01/30 06:05:54;;;;;;;5.40;5.00;;;5.50;99.90;;;;;;5056368;28;20199;-76
2023/01/30 06:08:20;;;;;;;3.83;3.53;;;5.50;99.90;;;;;;5056558;28;20218;-76
2023/01/30 06:10:49;;;;;;;10.55;6.63;;;5.50;99.90;;;;;;5056231;28;20233;-76
2023/01/30 06:13:16;;;;;;;9.80;6.07;;;5.50;99.90;;;;;;5055874;28;20190;-76
2023/01/30 06:15:42;;;;;;;4.40;4.03;;;5.60;99.90;;;;;;5055968;28;20222;-76
2023/01/30 06:18:09;;;;;;;2.15;1.33;;;5.60;99.90;;;;;;5056310;28;20186;-76
2023/01/30 06:20:36;;;;;;;2.88;2.63;;;5.60;99.90;;;;;;5056251;28;20258;-76
2023/01/30 06:23:03;;;;;;;15.45;6.88;;;5.60;99.90;;;;;;5056113;28;20305;-76
2023/01/30 06:25:30;;;;;;;10.07;2.15;;;5.60;99.90;;;;;;5055955;28;20201;-76
2023/01/30 06:27:58;;;;;;;2.03;1.92;;;5.70;99.90;;;;;;5055251;28;20256;-76
2023/01/30 06:30:25;;;;;;;4.38;4.03;;;5.70;99.90;;;;;;5055795;28;20221;-75
2023/01/30 06:32:52;;;;;;;12.27;3.92;;;5.70;99.90;;;;;;5054728;28;20218;-75
2023/01/30 06:35:19;;;;;;;7.50;5.75;;;5.70;99.90;;;;;;5054820;28;20194;-76
2023/01/30 06:37:46;;;;;;;1.13;0.88;;;5.70;99.90;;;;;;5055417;28;20281;-76
2023/01/30 06:40:13;;;;;;;10.70;6.35;;;5.80;99.90;;;;;;5056000;28;20574;-76
2023/01/30 06:42:44;;;;;;;4.30;3.17;;;5.80;99.90;;;;;;5054903;28;20253;-76
2023/01/30 06:45:13;;;;;;;5.65;4.10;;;5.80;99.90;;;;;;5054408;28;20194;-76
2023/01/30 06:47:48;;;;;;;10.27;6.13;;;5.80;99.90;;;;;;5054015;28;20195;-76
2023/01/30 06:50:16;;;;;;;3.63;2.97;;;5.80;99.90;;;;;;5051421;28;20218;-78
2023/01/30 06:52:44;;;;;;;3.17;2.88;;;5.90;99.90;;;;;;5044604;28;20207;-78
2023/01/30 06:55:12;;;;;;;1.90;1.70;;;5.90;99.90;;;;;;5041591;28;20203;-77
2023/01/30 06:57:39;;;;;;;6.00;3.67;;;5.90;99.90;;;;;;5041567;28;20218;-75
2023/01/30 07:00:09;;;;;;;4.47;4.07;;;5.90;99.90;;;;;;5041819;28;20277;-76
2023/01/30 07:02:38;;;;;;;1.25;1.15;;;6.00;99.90;;;;;;5039270;28;20237;-78
2023/01/30 07:05:06;;;;;;;9.88;4.95;;;6.00;99.90;;;;;;5040299;28;20191;-77
2023/01/30 07:07:34;;;;;;;0.68;0.68;;;6.00;99.90;;;;;;5033775;28;20576;-77
2023/01/30 07:10:01;;;;;;;8.90;7.50;;;6.00;99.90;;;;;;5033627;28;20215;-77
2023/01/30 07:12:28;;;;;;;12.20;6.35;;;6.00;99.90;;;;;;5033064;28;20338;-75
2023/01/30 07:14:55;;;;;;;1.23;1.23;;;6.00;99.90;;;;;;5033426;28;20195;-77
2023/01/30 07:17:22;;;;;;;12.65;2.05;;;6.00;99.90;;;;;;5033619;28;20295;-78
2023/01/30 07:19:51;;;;;;;6.47;4.13;;;6.10;99.90;;;;;;5033355;28;20269;-76
2023/01/30 07:22:17;;;;;;;0.50;0.40;;;6.10;99.90;;;;;;5033253;28;20215;-75
2023/01/30 07:24:44;;;;;;;4.22;1.90;;;6.10;99.90;;;;;;5033075;28;20199;-76
2023/01/30 07:27:12;;;;;;;2.20;2.10;;;6.10;99.90;;;;;;5033611;28;20209;-76
2023/01/30 07:29:40;;;;;;;10.25;4.55;;;6.10;99.90;;;;;;5033431;28;20237;-76
2023/01/30 07:32:08;;;;;;;5.78;1.92;;;6.10;99.90;;;;;;5033240;28;20245;-75
2023/01/30 07:34:34;;;;;;;0.50;0.40;;;6.10;99.90;;;;;;5033586;28;20195;-76
2023/01/30 07:37:03;;;;;;;9.05;4.30;;;6.00;99.90;;;;;;5033598;28;20196;-75
2023/01/30 07:39:29;;;;;;;3.25;2.95;;;6.00;99.90;;;;;;5033145;28;20287;-76
2023/01/30 07:41:56;;;;;;;3.80;3.35;;;6.00;99.90;;;;;;5036442;28;20226;-75
2023/01/30 07:44:23;;;;;;;1.67;1.58;;;6.00;99.90;;;;;;5044078;28;20281;-76
2023/01/30 07:46:50;;;;;;;1.17;1.08;;;6.00;99.90;;;;;;5117728;22;20227;-81
2023/01/30 07:49:17;;;;;;;5.57;3.95;;;6.00;99.90;;;;;;5074764;28;20269;-80
2023/01/30 07:51:44;;;;;;;9.75;2.05;;;6.00;99.90;;;;;;5046633;28;20736;-81
2023/01/30 07:54:12;;;;;;;0.75;0.75;;;6.10;99.90;;;;;;5049285;28;20278;-79
2023/01/30 07:56:39;;;;;;;4.15;1.25;;;6.10;99.90;;;;;;5040093;28;20780;-81
2023/01/30 07:59:06;;;;;;;2.78;1.85;;;6.10;99.90;;;;;;5031469;28;20191;-80
2023/01/30 08:01:34;;;;;;;0.73;0.68;;;6.20;99.90;;;;;;5023980;28;20196;-80
2023/01/30 08:04:01;;;;;;;0.57;0.57;;;6.20;99.90;;;;;;5025868;28;20343;-82
2023/01/30 08:06:28;;;;;;;0.50;0.40;;;6.20;99.90;;;;;;5033441;28;20212;-79
2023/01/30 08:08:54;;;;;;;2.45;1.73;;;6.20;99.90;;;;;;5031143;28;20208;-82
2023/01/30 08:11:23;;;;;;;0.80;0.80;;;6.10;99.90;;;;;;5035024;28;20199;-80
2023/01/30 08:13:50;;;;;;;0.50;0.40;;;6.10;99.90;;;;;;5031207;28;20203;-80
2023/01/30 08:16:16;;;;;;;0.52;0.50;;;6.10;99.90;;;;;;5026630;28;20239;-79
2023/01/30 08:18:43;;;;;;;0.98;0.73;;;6.20;99.90;;;;;;5023630;28;20220;-80
2023/01/30 08:21:11;;;;;;;2.30;2.15;;;6.30;99.90;;;;;;5023023;28;20216;-80
2023/01/30 08:23:38;;;;;;;3.17;1.73;;;6.40;99.90;;;;;;5022613;28;20235;-80
2023/01/30 08:26:06;;;;;;;7.53;2.92;;;6.40;99.90;;;;;;5026068;28;20192;-79
2023/01/30 08:28:34;;;;;;;2.25;2.03;;;6.40;99.90;;;;;;5024442;28;20247;-80
2023/01/30 08:31:01;;;;;;;0.50;0.40;;;6.40;99.90;;;;;;5024722;28;20250;-81
2023/01/30 08:33:28;;;;;;;0.50;0.40;;;6.40;99.90;;;;;;5024404;28;20196;-78
2023/01/30 08:35:56;;;;;;;0.50;0.50;;;6.40;99.90;;;;;;5023402;28;20287;-81
2023/01/30 08:38:23;;;;;;;1.50;1.40;;;6.30;99.90;;;;;;5029702;28;20223;-80
2023/01/30 08:40:50;;;;;;;1.25;1.08;;;6.40;99.90;;;;;;5026603;28;20283;-82
2023/01/30 08:43:17;;;;;;;3.30;0.80;;;6.40;99.90;;;;;;5030395;28;20231;-80
2023/01/30 08:45:45;;;;;;;3.33;1.35;;;6.40;99.90;;;;;;5024831;28;20725;-80
2023/01/30 08:48:12;;;;;;;0.50;0.40;;;6.40;99.90;;;;;;5027708;28;20200;-80
2023/01/30 08:50:39;;;;;;;0.70;0.70;;;6.40;99.90;;;;;;5023769;28;20192;-79
2023/01/30 08:53:07;;;;;;;2.70;2.50;;;6.40;99.90;;;;;;5023276;28;20208;-81
2023/01/30 08:55:35;;;;;;;3.63;0.77;;;6.50;99.90;;;;;;5021678;28;20202;-82
2023/01/30 08:58:02;;;;;;;9.07;1.75;;;6.50;99.90;;;;;;5023635;28;20281;-80
2023/01/30 09:00:29;;;;;;;0.50;0.40;;;6.50;99.90;;;;;;5024401;28;20215;-81
2023/01/30 09:02:57;;;;;;;1.75;0.68;;;6.50;99.90;;;;;;5029540;28;20220;-81
2023/01/30 09:05:25;;;;;;;9.07;1.27;;;6.40;99.90;;;;;;5024397;28;20240;-80
2023/01/30 09:07:52;;;;;;;0.50;0.47;;;6.50;99.90;;;;;;5023919;28;20283;-80
2023/01/30 09:10:19;;;;;;;2.97;2.60;;;6.50;99.90;;;;;;5026128;28;20255;-81
2023/01/30 09:12:46;;;;;;;0.50;0.40;;;6.50;99.90;;;;;;5023539;28;20697;-81
2023/01/30 09:15:13;;;;;;;0.70;0.70;;;6.50;99.90;;;;;;5022030;28;20207;-79
2023/01/30 09:17:40;;;;;;;2.75;1.27;;;6.50;99.90;;;;;;5023034;28;20701;-81
2023/01/30 09:20:10;;;;;;;1.35;1.10;;;6.60;99.90;;;;;;5025127;28;20188;-81
2023/01/30 09:22:37;;;;;;;1.83;0.98;;;6.60;99.90;;;;;;5023049;28;20238;-81
2023/01/30 09:25:05;;;;;;;0.50;0.40;;;6.60;99.90;;;;;;5022295;28;20262;-80
2023/01/30 09:27:32;;;;;;;0.50;0.40;;;6.60;99.90;;;;;;5024742;28;20228;-79
2023/01/30 09:29:59;;;;;;;1.88;1.48;;;6.60;99.90;;;;;;5028758;28;20208;-81
2023/01/30 09:32:26;;;;;;;0.50;0.40;;;6.70;99.90;;;;;;5029618;28;20195;-80
2023/01/30 09:34:53;;;;;;;4.10;1.25;;;6.70;99.90;;;;;;5032352;28;20202;-81
2023/01/30 09:37:21;;;;;;;0.50;0.50;;;6.70;99.90;;;;;;5034861;28;20215;-80
2023/01/30 09:39:48;;;;;;;0.68;0.68;;;6.70;99.90;;;;;;5033611;28;20245;-80
2023/01/30 09:42:32;;;;;;;2.15;2.05;;;6.70;99.90;;;;;;5033355;28;20230;-82
2023/01/30 09:45:27;;;;;;;3.78;1.60;;;6.70;99.90;;;;;;5036056;28;20211;-81
2023/01/30 09:48:02;;;;;;;0.50;0.40;;;6.80;99.90;;;;;;5039461;28;20196;-80
2023/01/30 09:50:43;;;;;;;6.82;1.77;;;6.80;99.90;;;;;;5030770;28;20220;-82
2023/01/30 09:53:18;;;;;;;1.70;1.10;;;6.80;99.90;;;;;;5028272;28;20220;-80
2023/01/30 09:55:46;;;;;;;0.50;0.40;;;6.80;99.90;;;;;;5028348;28;20207;-81
2023/01/30 09:58:17;;;;;;;2.15;0.70;;;6.80;99.90;;;;;;5028666;28;20260;-79
2023/01/30 10:00:47;;;;;;;3.88;1.80;;;6.80;99.90;;;;;;5024698;28;20264;-79
2023/01/30 10:03:17;;;;;;;0.63;0.55;;;6.70;99.90;;;;;;5025903;28;20196;-81
2023/01/30 10:05:48;;;;;;;1.42;1.02;;;6.70;99.90;;;;;;5026028;28;20216;-80
2023/01/30 10:08:39;;;;;;;0.50;0.40;;;6.70;99.90;;;;;;5029991;28;20196;-80
2023/01/30 10:11:14;;;;;;;1.23;0.95;;;6.70;99.90;;;;;;5026187;28;20196;-80
2023/01/30 10:14:09;;;;;;;4.32;0.80;;;6.80;99.90;;;;;;5025110;28;20188;-80
2023/01/30 10:16:41;;;;;;;0.60;0.60;;;6.80;99.90;;;;;;5024963;28;20235;-80
2023/01/30 10:19:32;;;;;;;0.50;0.40;;;6.90;99.90;;;;;;5025433;28;20192;-81
2023/01/30 10:22:07;;;;;;;1.13;1.13;;;7.10;99.90;;;;;;5024800;28;20649;-79
2023/01/30 10:24:43;;;;;;;0.60;0.60;;;7.30;99.90;;;;;;5025217;28;20581;-79
2023/01/30 10:27:15;;;;;;;0.50;0.47;;;7.40;99.90;;;;;;5023598;28;20696;-80
2023/01/30 10:29:47;;;;;;;3.42;2.25;;;7.30;99.90;;;;;;5023266;28;20287;-78
2023/01/30 10:32:18;;;;;;;2.55;1.35;;;7.30;99.90;;;;;;5023771;28;20206;-80
2023/01/30 10:34:49;;;;;;;0.50;0.40;;;7.20;99.90;;;;;;5026205;28;20183;-81
2023/01/30 10:37:22;;;;;;;0.60;0.50;;;7.20;99.90;;;;;;5025613;28;20226;-79
2023/01/30 10:39:59;;;;;;;2.67;1.35;;;7.20;99.90;;;;;;5025518;28;20251;-80
2023/01/30 10:42:31;;;;;;;0.50;0.40;;;7.20;99.90;;;;;;5024687;28;20242;-79
2023/01/30 10:45:12;;;;;;;8.20;1.77;;;7.10;99.90;;;;;;5023414;28;20191;-80
2023/01/30 10:47:48;;;;;;;11.48;1.55;;;7.20;99.90;;;;;;5025862;28;20311;-80
2023/01/30 10:50:17;;;;;;;20.45;5.25;;;7.20;99.90;;;;;;5028064;28;20771;-81
2023/01/30 10:52:52;;;;;;;1.45;1.45;;;7.20;99.90;;;;;;5024201;28;20202;-80
2023/01/30 10:55:30;;;;;;;0.50;0.50;;;7.10;99.90;;;;;;5025267;28;20620;-80
2023/01/30 10:58:07;;;;;;;0.50;0.40;;;7.20;99.90;;;;;;5026277;28;20246;-80
2023/01/30 11:00:38;;;;;;;0.50;0.40;;;7.10;99.90;;;;;;5027612;28;20184;-80
2023/01/30 11:03:16;;;;;;;32.38;2.47;;;7.10;99.90;;;;;;5024512;28;20196;-78
2023/01/30 11:05:54;;;;;;;2.78;1.67;;;7.20;99.90;;;;;;5026999;28;20215;-81
2023/01/30 11:08:25;;;;;;;1.60;1.15;;;7.30;99.90;;;;;;5027138;28;20176;-78
2023/01/30 11:10:57;;;;;;;2.55;0.77;;;7.30;99.90;;;;;;5026835;28;20220;-80
2023/01/30 11:13:29;;;;;;;2.20;0.98;;;7.30;99.90;;;;;;5027091;28;20278;-80
2023/01/30 11:15:58;;;;;;;0.50;0.40;;;7.40;99.90;;;;;;5028750;28;20219;-80
2023/01/30 11:18:26;;;;;;;0.88;0.88;;;7.30;99.90;;;;;;5029582;28;20286;-81
2023/01/30 11:21:03;;;;;;;4.95;0.77;;;7.30;99.90;;;;;;5025866;28;20195;-81
2023/01/30 11:23:35;;;;;;;1.30;1.30;;;7.40;99.90;;;;;;5027183;28;20275;-78
2023/01/30 11:26:05;;;;;;;1.25;1.15;;;7.40;99.90;;;;;;5028218;28;20223;-80
2023/01/30 11:28:40;;;;;;;2.15;1.35;;;7.50;99.90;;;;;;5026163;28;20725;-79
2023/01/30 11:31:18;;;;;;;5.32;1.23;;;7.60;99.90;;;;;;5027180;28;20219;-79
2023/01/30 11:33:46;;;;;;;8.48;0.85;;;7.70;99.90;;;;;;5024952;28;20199;-80
2023/01/30 11:36:27;;;;;;;5.18;1.52;;;7.70;99.90;;;;;;5025783;28;20581;-80
2023/01/30 11:39:00;;;;;;;0.50;0.40;;;7.80;99.90;;;;;;5026184;28;20244;-80
2023/01/30 11:41:29;;;;;;;0.70;0.70;;;7.80;99.90;;;;;;5026091;28;20188;-78
2023/01/30 11:44:01;;;;;;;2.70;1.20;;;7.80;99.90;;;;;;5025731;28;20203;-80
2023/01/30 11:46:33;;;;;;;0.68;0.68;;;7.70;99.90;;;;;;5028789;28;20223;-80
2023/01/30 11:49:04;;;;;;;10.40;2.40;;;7.60;99.90;;;;;;5031992;28;20184;-81
2023/01/30 11:51:34;;;;;;;0.73;0.73;;;7.60;99.90;;;;;;5023674;28;20220;-81
2023/01/30 11:54:04;;;;;;;1.13;1.02;;;7.60;99.90;;;;;;5025746;28;20263;-78
2023/01/30 11:56:35;;;;;;;1.38;1.27;;;7.60;99.90;;;;;;5024639;28;20223;-78
2023/01/30 11:59:05;;;;;;;4.15;3.08;;;7.60;99.90;;;;;;5024956;28;20255;-80
2023/01/30 12:01:37;;;;;;;2.60;1.05;;;7.70;99.90;;;;;;5025019;28;20203;-79
2023/01/30 12:04:08;;;;;;;0.70;0.70;;;7.80;99.90;;;;;;5025073;28;20223;-81
2023/01/30 12:06:38;;;;;;;6.10;1.98;;;8.00;99.90;;;;;;5024338;28;20222;-81
2023/01/30 12:09:07;;;;;;;21.08;4.38;;;8.00;99.90;;;;;;5025352;28;20196;-80
2023/01/30 12:11:45;;;;;;;11.50;3.40;;;7.90;99.90;;;;;;5023985;28;20238;-80
2023/01/30 12:14:24;;;;;;;3.25;0.90;;;7.90;99.90;;;;;;5026063;28;20188;-81
2023/01/30 12:17:06;;;;;;;0.60;0.60;;;7.90;99.90;;;;;;5023215;28;20211;-81
2023/01/30 12:19:42;;;;;;;1.17;0.50;;;8.00;99.90;;;;;;5025449;28;20203;-81
2023/01/30 12:22:24;;;;;;;0.80;0.60;;;8.10;99.90;;;;;;5025978;28;20192;-81
2023/01/30 12:24:59;;;;;;;4.13;0.95;;;8.10;99.90;;;;;;5026678;28;20188;-81
2023/01/30 12:27:44;;;;;;;7.30;1.73;;;8.10;99.90;;;;;;5025594;28;20584;-80
2023/01/30 12:30:26;;;;;;;8.82;1.13;;;8.00;99.90;;;;;;5029906;28;20192;-81
2023/01/30 12:32:59;;;;;;;0.63;0.63;;;8.00;99.90;;;;;;5025178;28;20181;-80
2023/01/30 12:35:35;;;;;;;4.22;1.88;;;8.00;99.90;;;;;;5024126;28;20199;-79
2023/01/30 12:38:10;;;;;;;3.40;1.23;;;7.80;99.90;;;;;;5021769;28;20203;-81
2023/01/30 12:40:50;;;;;;;3.78;1.58;;;7.70;99.90;;;;;;5021209;28;20198;-79
2023/01/30 12:43:41;;;;;;;1.25;1.15;;;7.90;99.90;;;;;;5026618;28;20192;-81
2023/01/30 12:46:20;;;;;;;1.67;0.82;;;8.20;99.90;;;;;;5020704;28;20258;-79
2023/01/30 12:49:03;;;;;;;0.50;0.40;;;8.20;99.90;;;;;;5024649;28;20180;-79
2023/01/30 12:51:55;;;;;;;8.95;1.90;;;8.30;99.90;;;;;;5027602;28;20208;-81
2023/01/30 12:54:37;;;;;;;4.43;1.83;;;8.40;99.90;;;;;;5023184;28;20277;-80
2023/01/30 12:57:15;;;;;;;0.82;0.75;;;8.30;99.90;;;;;;5026537;28;20220;-80
2023/01/30 12:59:50;;;;;;;0.63;0.63;;;8.30;99.90;;;;;;5021671;28;20223;-80
2023/01/30 13:02:37;;;;;;;5.75;1.13;;;8.40;99.90;;;;;;5023039;28;20233;-80
2023/01/30 13:05:20;;;;;;;1.25;0.60;;;8.30;99.90;;;;;;5023895;28;20246;-80
2023/01/30 13:08:02;;;;;;;0.80;0.50;;;8.30;99.90;;;;;;5022905;28;20206;-80
2023/01/30 13:10:37;;;;;;;4.00;2.17;;;8.30;99.90;;;;;;5026400;28;20207;-80
2023/01/30 13:13:14;;;;;;;6.45;2.80;;;8.20;99.90;;;;;;5023040;28;20253;-79
2023/01/30 13:15:50;;;;;;;0.88;0.88;;;8.10;99.90;;;;;;5024170;28;20239;-80
2023/01/30 13:18:22;;;;;;;0.60;0.50;;;8.20;99.90;;;;;;5026752;28;20184;-80